Northern & Central Napa County

33 Stations

15 Minute Data | America/Los_Angeles
as of 9/1/26 4:06 AM PDT
Station Date Time Temp (°F) RH (%) Dew Pt (°F) Wind Spd (mph) Wind Dir (°) Wind Gust (mph) Latest Rain (In) Daily Rain (In) Daily Max Temp (°F) Daily Min Temp (°F)
Tenma (North Calistoga) 9/1/26 0400 57.9   0.2 - - - - - 0.00 0.00 59.7   1.4 53.9   1.2
Calistoga-Solari 9/1/26 0400 56.7   0.7 86   2 52.5   1.3 2.8   1.2 WNW | 293 5.7   0.6 0.00 0.00 58.6   0.7 53.6   3.8
Calistoga-North 9/1/26 0400 58.1   0.1 85   4 53.5   1.2 - - - 0.00 0.00 59.9   0.9 56.0   1.9
Twomey Calistoga 9/1/26 0400 56.8   1.1 85   1 52.3   0.9 1.3   1.1 WNW | 299 4.1   3.1 0.00 0.00 58.2   0.7 52.1   5.9
Paloma 9/1/26 0400 58.4   0.6 80   6 52.3   1.3 3.3   0.1 ESE | 112 10.2   1.8 0.00 0.00 59.7   1.6 56.4   1.3
Calistoga (Ranch 78) 9/1/26 0400 57.2   0.5 82   3 51.7   1.5 2.5   0.9 NW | 304 4.6   3.3 0.00 0.00 59.3   0.9 54.7   2.9
Diamond Mtn (Schramsberg) 9/1/26 0400 54.9   0.7 86   14 50.8   3.4 - - - 0.00 0.00 55.9   0.5 53.7   0.4
Diamond Mtn (McEachran) 9/1/26 0400 56.0   0.6 87   3 52.1   1.4 - - - - - 58.2   0.5 54.3   2.2
Deer Park 9/1/26 0400 56.7   1.5 81   9 51.1   1.4 2.9   0.7 NNW | 332 5.9   2.1 0.00 0.00 57.7   1.0 55.8   0.9
St. Helena-North 9/1/26 0400 57.5   0.6 78   1 50.8   1.0 0.5   3.1 NNW | 337 2.2   5.0 0.00 0.00 59.4   0.0 54.4   3.4
St. Helena (NVV Office) 9/1/26 0400 58.7   0.4 - - 0.8   0.7 NW | 326 3.6   0.3 0.00 0.00 58.8   0.7 57.2   0.8
Tiara Fria (East St. Helena) 9/1/26 0400 58.6   0.7 80   3 52.3   0.3 1.3   1.5 WNW | 292 3.1   3.7 0.00 0.00 59.3   0.1 55.6   2.2
Prisoner Winery 9/1/26 0400 59.3   1.6 79   5 52.8   0.0 1.6   0.3 E | 90 4.2   0.9 0.00 0.00 59.6   0.9 53.2   2.8
Rutherford Hill Estate 9/1/26 0400 58.5   2.2 80   7 52.4   0.2 0.4   0.4 NW | 308 2.4   3.1 0.00 0.00 58.6   1.4 57.1   0.9
Rutherford-North (Mee Ln) 9/1/26 0400 58.8   1.9 79   4 52.5   0.4 1.2   2.8 ESE | 117 3.3   7.5 0.00 0.00 59.1   1.4 53.1   0.9
Rutherford (STS) 9/1/26 0400 59.0   1.8 85   3 54.6   0.7 1.2   1.9 NE | 42 3.3   3.8 0.00 0.00 59.2   0.5 55.8   1.3
Silver Oak OV 9/1/26 0400 60.6   2.9 74   10 52.3   0.5 0.9   2.8 SSW | 196 2.4   4.6 0.00 0.00 60.7   1.4 58.2   0.5
Oakville-NE (Ranch 88) 9/1/26 0400 59.7   2.0 74   5 51.3   0.0 0.0   2.4 N | 0 0.0   6.5 0.00 0.00 59.9   1.0 57.5   0.0
Crossroads Ranch 9/1/26 0400 61.0   3.0 74   9 52.5   0.4 0.5   3.1 SW | 226 4.3   3.2 0.00 0.00 61.0   1.6 58.5   0.6
Oakville 9/1/26 0400 60.8   3.2 71   11 51.4   0.9 1.5   0.9 WSW | 241 4.7   0.8 0.00 0.00 60.9   1.9 58.8   1.3
To Kalon Remote (TKKE) 9/1/26 0400 61.4   3.5 - - - - - - - 61.5   2.5 58.0   0.2
To Kalon 9/1/26 0400 60.6   3.3 74   11 52.5   0.6 0.9   2.3 SW | 222 2.7   5.1 0.00 0.00 60.7   2.3 60.0   2.9
To Kalon Remote (TKN5) 9/1/26 0400 61.1   3.2 - - - - - - - 61.3   1.6 60.6   2.9
Jump Rock 9/1/26 0400 54.8   3.5 89   7 51.7   1.3 1.4   0.4 WNW | 295 4.3   0.2 0.00 0.00 55.2   3.2 54.6   10.8
State Lane Ranch 9/1/26 0400 60.6   2.1 78   7 53.9   0.1 0.5   2.6 SE | 134 2.0   6.9 0.00 0.00 60.7   1.1 59.9   1.5
Yountville (Ranch 67) 9/1/26 0400 60.5   3.7 69   13 50.2   1.1 2.9   1.3 WSW | 247 5.6   3.3 0.00 0.00 60.7   2.2 59.8   2.9
Borreo (Soda Canyon) 9/1/26 0400 58.7   3.1 73   13 50.2   1.3 0.6   1.8 E | 93 2.1   3.2 0.00 0.00 58.8   2.3 58.2   2.8
Wappo Hill Floor 9/1/26 0400 61.4   3.6 70   11 51.7   0.6 2.2   0.6 WNW | 285 4.6   1.6 0.00 0.00 61.5   2.2 60.6   2.8
Wappo Hill 9/1/26 0400 60.9   3.6 71   13 51.3   0.9 5.6   0.5 W | 279 8.5   0.2 0.00 0.00 61.0   2.2 59.8   2.6
Stags Leap Dist (Chimney Rock) 9/1/26 0400 61.4   3.0 75   9 53.5   0.3 1.8   1.5 W | 262 4.5   1.8 0.00 0.00 61.5   1.8 60.9   2.6
Stags Leap Dist (Silverado Vineyards) 9/1/26 0400 60.4   3.3 71   12 50.8   0.9 0.2   2.9 SSE | 168 1.8   3.9 0.00 0.00 60.4   1.8 58.9   1.9
Yountville-SE (Ranch 85) 9/1/26 0400 61.0   3.1 76   9 53.3   0.1 0.2   2.3 SW | 218 1.3   4.9 0.00 0.00 61.3   1.9 59.8   2.1
Yountville-South (Ranch 87) 9/1/26 0400 61.1   3.7 74   11 52.8   0.2 0.2   1.8 WNW | 290 1.1   3.5 0.00 0.00 61.4   1.9 59.0   1.9
Max     61.4 89 54.6 5.6 - 10.2 0.00 0.00 61.5 60.9
Avg     59.1 78 52.1 1.4 - 3.8 0.00 - - -
Min     54.8 69 50.2 0.0 - 0.0 0.00 0.00 55.2 52.1